<?xml version="1.0" encoding="UTF-8" standalone="no" ?>
<gpx xmlns="http://www.topografix.com/GPX/1/1" xmlns:xsi="http://www.w3.org/2001/XMLSchema-instance" xsi:schemaLocation="http://www.topografix.com/GPX/1/1 http://www.topografix.com/GPX/1/1/gpx.xsd" version="1.1" creator="VisuGPX - https://www.visugpx.com">
  <metadata>
    <name>2021-10-18-46-Saint Cernin</name>
    <desc><![CDATA[Randonnée de 11km pour 200m de dénivelé positif. Un Circuit principalement en sous bois avec à la clé des fontaines et puits et beaux bâtiments à voir]]></desc>
  </metadata>
  <trk>
    <name><![CDATA[-Saint-Cernin-Moi]]></name>
    <trkseg>
      <trkpt lat="44.59459" lon="1.58136">
        <ele>367</ele>
        <time>2017-10-10T09:58:48Z</time>
      </trkpt>
      <trkpt lat="44.59541" lon="1.58149">
        <ele>373</ele>
        <time>2017-10-10T10:00:48Z</time>
      </trkpt>
      <trkpt lat="44.59562" lon="1.58025">
        <ele>367</ele>
        <time>2017-10-10T10:02:48Z</time>
      </trkpt>
      <trkpt lat="44.59547" lon="1.57926">
        <ele>360</ele>
        <time>2017-10-10T10:04:48Z</time>
      </trkpt>
      <trkpt lat="44.59562" lon="1.57849">
        <ele>360</ele>
        <time>2017-10-10T10:06:48Z</time>
      </trkpt>
      <trkpt lat="44.59624" lon="1.57698">
        <ele>357</ele>
        <time>2017-10-10T10:08:48Z</time>
      </trkpt>
      <trkpt lat="44.59709" lon="1.57647">
        <ele>345</ele>
        <time>2017-10-10T10:10:48Z</time>
      </trkpt>
      <trkpt lat="44.59752" lon="1.57595">
        <ele>336</ele>
        <time>2017-10-10T10:12:48Z</time>
      </trkpt>
      <trkpt lat="44.59758" lon="1.57651">
        <ele>337</ele>
        <time>2017-10-10T10:14:48Z</time>
      </trkpt>
      <trkpt lat="44.59792" lon="1.57737">
        <ele>340</ele>
        <time>2017-10-10T10:16:48Z</time>
      </trkpt>
      <trkpt lat="44.59798" lon="1.5763">
        <ele>333</ele>
        <time>2017-10-10T10:18:48Z</time>
      </trkpt>
      <trkpt lat="44.59792" lon="1.57535">
        <ele>328</ele>
        <time>2017-10-10T10:20:48Z</time>
      </trkpt>
      <trkpt lat="44.59868" lon="1.57458">
        <ele>315</ele>
        <time>2017-10-10T10:22:48Z</time>
      </trkpt>
      <trkpt lat="44.59908" lon="1.57454">
        <ele>309</ele>
        <time>2017-10-10T10:24:48Z</time>
      </trkpt>
      <trkpt lat="44.59963" lon="1.57505">
        <ele>312</ele>
        <time>2017-10-10T10:26:48Z</time>
      </trkpt>
      <trkpt lat="44.60009" lon="1.57501">
        <ele>310</ele>
        <time>2017-10-10T10:28:48Z</time>
      </trkpt>
      <trkpt lat="44.60103" lon="1.57553">
        <ele>319</ele>
        <time>2017-10-10T10:30:48Z</time>
      </trkpt>
      <trkpt lat="44.6018" lon="1.57574">
        <ele>323</ele>
        <time>2017-10-10T10:32:48Z</time>
      </trkpt>
      <trkpt lat="44.60174" lon="1.57647">
        <ele>323</ele>
        <time>2017-10-10T10:34:48Z</time>
      </trkpt>
      <trkpt lat="44.6018" lon="1.57801">
        <ele>331</ele>
        <time>2017-10-10T10:36:48Z</time>
      </trkpt>
      <trkpt lat="44.6018" lon="1.5787">
        <ele>333</ele>
        <time>2017-10-10T10:38:48Z</time>
      </trkpt>
      <trkpt lat="44.60247" lon="1.57973">
        <ele>340</ele>
        <time>2017-10-10T10:40:48Z</time>
      </trkpt>
      <trkpt lat="44.60265" lon="1.58042">
        <ele>346</ele>
        <time>2017-10-10T10:42:48Z</time>
      </trkpt>
      <trkpt lat="44.60284" lon="1.58102">
        <ele>351</ele>
        <time>2017-10-10T10:44:48Z</time>
      </trkpt>
      <trkpt lat="44.60302" lon="1.58046">
        <ele>351</ele>
        <time>2017-10-10T10:46:48Z</time>
      </trkpt>
      <trkpt lat="44.60326" lon="1.579">
        <ele>358</ele>
        <time>2017-10-10T10:48:48Z</time>
      </trkpt>
      <trkpt lat="44.60384" lon="1.57814">
        <ele>367</ele>
        <time>2017-10-10T10:50:48Z</time>
      </trkpt>
      <trkpt lat="44.60394" lon="1.57763">
        <ele>369</ele>
        <time>2017-10-10T10:52:48Z</time>
      </trkpt>
      <trkpt lat="44.60442" lon="1.57703">
        <ele>373</ele>
        <time>2017-10-10T10:54:48Z</time>
      </trkpt>
      <trkpt lat="44.60497" lon="1.57626">
        <ele>373</ele>
        <time>2017-10-10T10:56:48Z</time>
      </trkpt>
      <trkpt lat="44.60565" lon="1.57647">
        <ele>372</ele>
        <time>2017-10-10T10:58:48Z</time>
      </trkpt>
      <trkpt lat="44.60552" lon="1.57698">
        <ele>375</ele>
        <time>2017-10-10T11:00:48Z</time>
      </trkpt>
      <trkpt lat="44.60632" lon="1.57741">
        <ele>377</ele>
        <time>2017-10-10T11:02:48Z</time>
      </trkpt>
      <trkpt lat="44.60626" lon="1.57801">
        <ele>381</ele>
        <time>2017-10-10T11:04:48Z</time>
      </trkpt>
      <trkpt lat="44.60672" lon="1.58007">
        <ele>395</ele>
        <time>2017-10-10T11:06:48Z</time>
      </trkpt>
      <trkpt lat="44.6073" lon="1.58188">
        <ele>404</ele>
        <time>2017-10-10T11:08:48Z</time>
      </trkpt>
      <trkpt lat="44.60748" lon="1.58256">
        <ele>404</ele>
        <time>2017-10-10T11:10:48Z</time>
      </trkpt>
      <trkpt lat="44.6069" lon="1.58419">
        <ele>404</ele>
        <time>2017-10-10T11:12:48Z</time>
      </trkpt>
      <trkpt lat="44.60656" lon="1.58484">
        <ele>405</ele>
        <time>2017-10-10T11:14:48Z</time>
      </trkpt>
      <trkpt lat="44.60656" lon="1.58531">
        <ele>405</ele>
        <time>2017-10-10T11:16:48Z</time>
      </trkpt>
      <trkpt lat="44.60611" lon="1.58574">
        <ele>399</ele>
        <time>2017-10-10T11:18:48Z</time>
      </trkpt>
      <trkpt lat="44.60589" lon="1.58625">
        <ele>397</ele>
        <time>2017-10-10T11:20:48Z</time>
      </trkpt>
      <trkpt lat="44.60501" lon="1.58686">
        <ele>399</ele>
        <time>2017-10-10T11:22:48Z</time>
      </trkpt>
      <trkpt lat="44.60589" lon="1.5875">
        <ele>401</ele>
        <time>2017-10-10T11:24:48Z</time>
      </trkpt>
      <trkpt lat="44.60662" lon="1.5878">
        <ele>405</ele>
        <time>2017-10-10T11:26:48Z</time>
      </trkpt>
      <trkpt lat="44.60766" lon="1.58776">
        <ele>396</ele>
        <time>2017-10-10T11:28:48Z</time>
      </trkpt>
      <trkpt lat="44.60806" lon="1.5881">
        <ele>392</ele>
        <time>2017-10-10T11:30:48Z</time>
      </trkpt>
      <trkpt lat="44.60861" lon="1.58823">
        <ele>392</ele>
        <time>2017-10-10T11:32:48Z</time>
      </trkpt>
      <trkpt lat="44.60855" lon="1.59136">
        <ele>402</ele>
        <time>2017-10-10T11:34:48Z</time>
      </trkpt>
      <trkpt lat="44.608" lon="1.59188">
        <ele>400</ele>
        <time>2017-10-10T11:36:48Z</time>
      </trkpt>
      <trkpt lat="44.60776" lon="1.59291">
        <ele>401</ele>
        <time>2017-10-10T11:38:48Z</time>
      </trkpt>
      <trkpt lat="44.60763" lon="1.59497">
        <ele>392</ele>
        <time>2017-10-10T11:40:48Z</time>
      </trkpt>
      <trkpt lat="44.60748" lon="1.59643">
        <ele>370</ele>
        <time>2017-10-10T11:42:48Z</time>
      </trkpt>
      <trkpt lat="44.60739" lon="1.59703">
        <ele>364</ele>
        <time>2017-10-10T11:44:48Z</time>
      </trkpt>
      <trkpt lat="44.60901" lon="1.59724">
        <ele>369</ele>
        <time>2017-10-10T11:46:48Z</time>
      </trkpt>
      <trkpt lat="44.60971" lon="1.59793">
        <ele>371</ele>
        <time>2017-10-10T11:48:48Z</time>
      </trkpt>
      <trkpt lat="44.61093" lon="1.59844">
        <ele>376</ele>
        <time>2017-10-10T11:50:48Z</time>
      </trkpt>
      <trkpt lat="44.61264" lon="1.5996">
        <ele>389</ele>
        <time>2017-10-10T11:52:48Z</time>
      </trkpt>
      <trkpt lat="44.61399" lon="1.59986">
        <ele>394</ele>
        <time>2017-10-10T11:54:48Z</time>
      </trkpt>
      <trkpt lat="44.61399" lon="1.60063">
        <ele>389</ele>
        <time>2017-10-10T11:56:48Z</time>
      </trkpt>
      <trkpt lat="44.61432" lon="1.6011">
        <ele>389</ele>
        <time>2017-10-10T11:58:48Z</time>
      </trkpt>
      <trkpt lat="44.6142" lon="1.60188">
        <ele>393</ele>
        <time>2017-10-10T12:00:48Z</time>
      </trkpt>
      <trkpt lat="44.61365" lon="1.60222">
        <ele>398</ele>
        <time>2017-10-10T12:02:48Z</time>
      </trkpt>
      <trkpt lat="44.61319" lon="1.60149">
        <ele>398</ele>
        <time>2017-10-10T12:04:48Z</time>
      </trkpt>
      <trkpt lat="44.61258" lon="1.60123">
        <ele>404</ele>
        <time>2017-10-10T12:06:48Z</time>
      </trkpt>
      <trkpt lat="44.612" lon="1.60209">
        <ele>411</ele>
        <time>2017-10-10T12:08:48Z</time>
      </trkpt>
      <trkpt lat="44.61197" lon="1.60342">
        <ele>419</ele>
        <time>2017-10-10T12:10:48Z</time>
      </trkpt>
      <trkpt lat="44.61164" lon="1.60501">
        <ele>426</ele>
        <time>2017-10-10T12:12:48Z</time>
      </trkpt>
      <trkpt lat="44.61133" lon="1.60715">
        <ele>441</ele>
        <time>2017-10-10T12:14:48Z</time>
      </trkpt>
      <trkpt lat="44.61157" lon="1.60874">
        <ele>452</ele>
        <time>2017-10-10T12:16:48Z</time>
      </trkpt>
      <trkpt lat="44.61075" lon="1.60853">
        <ele>448</ele>
        <time>2017-10-10T12:18:48Z</time>
      </trkpt>
      <trkpt lat="44.60947" lon="1.60857">
        <ele>437</ele>
        <time>2017-10-10T12:20:48Z</time>
      </trkpt>
      <trkpt lat="44.60904" lon="1.60827">
        <ele>432</ele>
        <time>2017-10-10T12:22:48Z</time>
      </trkpt>
      <trkpt lat="44.6069" lon="1.60561">
        <ele>413</ele>
        <time>2017-10-10T12:24:48Z</time>
      </trkpt>
      <trkpt lat="44.60549" lon="1.60518">
        <ele>408</ele>
        <time>2017-10-10T12:26:48Z</time>
      </trkpt>
      <trkpt lat="44.60488" lon="1.60458">
        <ele>407</ele>
        <time>2017-10-10T12:28:48Z</time>
      </trkpt>
      <trkpt lat="44.60464" lon="1.60364">
        <ele>407</ele>
        <time>2017-10-10T12:30:48Z</time>
      </trkpt>
      <trkpt lat="44.60485" lon="1.60299">
        <ele>402</ele>
        <time>2017-10-10T12:32:48Z</time>
      </trkpt>
      <trkpt lat="44.60537" lon="1.60175">
        <ele>388</ele>
        <time>2017-10-10T12:34:48Z</time>
      </trkpt>
      <trkpt lat="44.60568" lon="1.60106">
        <ele>383</ele>
        <time>2017-10-10T12:36:48Z</time>
      </trkpt>
      <trkpt lat="44.60589" lon="1.60012">
        <ele>381</ele>
        <time>2017-10-10T12:38:48Z</time>
      </trkpt>
      <trkpt lat="44.60607" lon="1.59921">
        <ele>375</ele>
        <time>2017-10-10T12:40:48Z</time>
      </trkpt>
      <trkpt lat="44.60604" lon="1.59866">
        <ele>368</ele>
        <time>2017-10-10T12:42:48Z</time>
      </trkpt>
      <trkpt lat="44.60644" lon="1.59857">
        <ele>365</ele>
        <time>2017-10-10T12:44:48Z</time>
      </trkpt>
      <trkpt lat="44.60681" lon="1.59883">
        <ele>368</ele>
        <time>2017-10-10T12:46:48Z</time>
      </trkpt>
      <trkpt lat="44.60675" lon="1.59806">
        <ele>360</ele>
        <time>2017-10-10T12:48:48Z</time>
      </trkpt>
      <trkpt lat="44.60742" lon="1.5978">
        <ele>364</ele>
        <time>2017-10-10T12:50:48Z</time>
      </trkpt>
      <trkpt lat="44.60763" lon="1.59698">
        <ele>366</ele>
        <time>2017-10-10T12:52:48Z</time>
      </trkpt>
      <trkpt lat="44.60693" lon="1.59707">
        <ele>361</ele>
        <time>2017-10-10T12:54:48Z</time>
      </trkpt>
      <trkpt lat="44.60617" lon="1.59728">
        <ele>357</ele>
        <time>2017-10-10T12:56:48Z</time>
      </trkpt>
      <trkpt lat="44.60522" lon="1.59703">
        <ele>359</ele>
        <time>2017-10-10T12:58:48Z</time>
      </trkpt>
      <trkpt lat="44.60436" lon="1.59647">
        <ele>360</ele>
        <time>2017-10-10T13:00:48Z</time>
      </trkpt>
      <trkpt lat="44.604" lon="1.59612">
        <ele>362</ele>
        <time>2017-10-10T13:02:48Z</time>
      </trkpt>
      <trkpt lat="44.60345" lon="1.59582">
        <ele>359</ele>
        <time>2017-10-10T13:04:48Z</time>
      </trkpt>
      <trkpt lat="44.60256" lon="1.59475">
        <ele>358</ele>
        <time>2017-10-10T13:06:48Z</time>
      </trkpt>
      <trkpt lat="44.60278" lon="1.59535">
        <ele>357</ele>
        <time>2017-10-10T13:08:48Z</time>
      </trkpt>
      <trkpt lat="44.60284" lon="1.59591">
        <ele>353</ele>
        <time>2017-10-10T13:10:48Z</time>
      </trkpt>
      <trkpt lat="44.60238" lon="1.59591">
        <ele>349</ele>
        <time>2017-10-10T13:12:48Z</time>
      </trkpt>
      <trkpt lat="44.6018" lon="1.5957">
        <ele>346</ele>
        <time>2017-10-10T13:14:48Z</time>
      </trkpt>
      <trkpt lat="44.60103" lon="1.59552">
        <ele>344</ele>
        <time>2017-10-10T13:16:48Z</time>
      </trkpt>
      <trkpt lat="44.60009" lon="1.59518">
        <ele>341</ele>
        <time>2017-10-10T13:18:48Z</time>
      </trkpt>
      <trkpt lat="44.59951" lon="1.59492">
        <ele>341</ele>
        <time>2017-10-10T13:20:48Z</time>
      </trkpt>
      <trkpt lat="44.59813" lon="1.59351">
        <ele>339</ele>
        <time>2017-10-10T13:22:48Z</time>
      </trkpt>
      <trkpt lat="44.59727" lon="1.59278">
        <ele>339</ele>
        <time>2017-10-10T13:24:48Z</time>
      </trkpt>
      <trkpt lat="44.59685" lon="1.59235">
        <ele>337</ele>
        <time>2017-10-10T13:26:48Z</time>
      </trkpt>
      <trkpt lat="44.5966" lon="1.59179">
        <ele>341</ele>
        <time>2017-10-10T13:28:48Z</time>
      </trkpt>
      <trkpt lat="44.59636" lon="1.59076">
        <ele>349</ele>
        <time>2017-10-10T13:30:48Z</time>
      </trkpt>
      <trkpt lat="44.59617" lon="1.59003">
        <ele>353</ele>
        <time>2017-10-10T13:32:48Z</time>
      </trkpt>
      <trkpt lat="44.59593" lon="1.58849">
        <ele>362</ele>
        <time>2017-10-10T13:34:48Z</time>
      </trkpt>
      <trkpt lat="44.59489" lon="1.58643">
        <ele>373</ele>
        <time>2017-10-10T13:36:48Z</time>
      </trkpt>
      <trkpt lat="44.59471" lon="1.58578">
        <ele>374</ele>
        <time>2017-10-10T13:38:48Z</time>
      </trkpt>
      <trkpt lat="44.59507" lon="1.58449">
        <ele>381</ele>
        <time>2017-10-10T13:40:48Z</time>
      </trkpt>
      <trkpt lat="44.59495" lon="1.58389">
        <ele>381</ele>
        <time>2017-10-10T13:42:48Z</time>
      </trkpt>
      <trkpt lat="44.59431" lon="1.58295">
        <ele>374</ele>
        <time>2017-10-10T13:44:48Z</time>
      </trkpt>
      <trkpt lat="44.59511" lon="1.58278">
        <ele>380</ele>
        <time>2017-10-10T13:46:48Z</time>
      </trkpt>
      <trkpt lat="44.59541" lon="1.58179">
        <ele>375</ele>
        <time>2017-10-10T13:48:48Z</time>
      </trkpt>
      <trkpt lat="44.5941" lon="1.5814">
        <ele>365</ele>
        <time>2017-10-10T13:50:48Z</time>
      </trkpt>
    </trkseg>
  </trk>
</gpx>